createdAt,value
2023-05-05T00:00:34.664Z,937.00
2023-05-05T00:01:34.681Z,936.00
2023-05-05T00:02:34.787Z,935.00
2023-05-05T00:03:34.840Z,933.00
2023-05-05T00:04:34.800Z,932.00
2023-05-05T00:05:34.813Z,935.00
2023-05-05T00:06:34.861Z,933.00
2023-05-05T00:07:34.905Z,932.00
2023-05-05T00:08:34.936Z,930.00
2023-05-05T00:09:34.976Z,931.00
2023-05-05T00:10:35.011Z,928.00
2023-05-05T00:11:35.073Z,929.00
2023-05-05T00:12:35.081Z,929.00
2023-05-05T00:13:35.119Z,925.00
2023-05-05T00:14:35.163Z,926.00
2023-05-05T00:15:35.186Z,925.00
2023-05-05T00:16:35.377Z,924.00
2023-05-05T00:17:35.271Z,924.00
2023-05-05T00:18:35.314Z,928.00
2023-05-05T00:19:35.362Z,929.00
2023-05-05T00:20:35.380Z,929.00
2023-05-05T00:21:35.403Z,929.00
2023-05-05T00:22:35.441Z,928.00
2023-05-05T00:23:35.469Z,928.00
2023-05-05T00:24:35.507Z,931.00
2023-05-05T00:25:35.547Z,931.00
2023-05-05T00:26:35.581Z,927.00
2023-05-05T00:27:35.618Z,926.00
2023-05-05T00:28:35.656Z,930.00
2023-05-05T00:29:35.690Z,927.00
2023-05-05T00:30:35.732Z,926.00
2023-05-05T00:31:35.858Z,923.00
2023-05-05T00:32:35.850Z,922.00
2023-05-05T00:33:35.825Z,924.00
2023-05-05T00:34:35.828Z,922.00
2023-05-05T00:35:35.871Z,921.00
2023-05-05T00:36:35.910Z,921.00
2023-05-05T00:37:35.935Z,921.00
2023-05-05T00:38:35.954Z,918.00
2023-05-05T00:39:35.989Z,917.00
2023-05-05T00:40:35.983Z,914.00
2023-05-05T00:41:36.007Z,914.00
2023-05-05T00:42:36.027Z,919.00
2023-05-05T00:43:36.029Z,920.00
2023-05-05T00:44:36.059Z,917.00
2023-05-05T00:45:36.098Z,917.00
2023-05-05T00:46:36.188Z,913.00
2023-05-05T00:47:36.205Z,915.00
2023-05-05T00:48:36.197Z,913.00
2023-05-05T00:49:36.248Z,913.00
2023-05-05T00:50:36.242Z,912.00
2023-05-05T00:51:36.283Z,917.00
2023-05-05T00:52:36.323Z,914.00
2023-05-05T00:53:36.327Z,913.00
2023-05-05T00:54:36.396Z,910.00
2023-05-05T00:55:36.388Z,906.00
2023-05-05T00:56:36.422Z,905.00
2023-05-05T00:57:36.433Z,906.00
2023-05-05T00:58:36.462Z,907.00
2023-05-05T00:59:36.466Z,905.00
2023-05-05T01:00:36.503Z,903.00
2023-05-05T01:01:36.562Z,901.00
2023-05-05T01:02:36.620Z,900.00
2023-05-05T01:03:36.618Z,904.00
2023-05-05T01:04:36.609Z,900.00
2023-05-05T01:05:36.635Z,898.00
2023-05-05T01:06:36.658Z,898.00
2023-05-05T01:07:36.692Z,901.00
2023-05-05T01:08:36.709Z,900.00
2023-05-05T01:09:36.728Z,900.00
2023-05-05T01:10:36.768Z,901.00
2023-05-05T01:11:36.794Z,901.00
2023-05-05T01:12:36.847Z,902.00
2023-05-05T01:13:36.858Z,900.00
2023-05-05T01:14:36.875Z,899.00
2023-05-05T01:15:36.895Z,897.00
2023-05-05T01:16:36.962Z,899.00
2023-05-05T01:17:37.006Z,895.00
2023-05-05T01:18:37.017Z,895.00
2023-05-05T01:19:37.053Z,894.00
2023-05-05T01:20:37.088Z,895.00
2023-05-05T01:21:37.131Z,895.00
2023-05-05T01:22:37.158Z,894.00
2023-05-05T01:23:37.175Z,895.00
2023-05-05T01:24:37.217Z,896.00
2023-05-05T01:25:37.244Z,892.00
2023-05-05T01:26:37.274Z,890.00
2023-05-05T01:27:37.317Z,890.00
2023-05-05T01:28:37.351Z,891.00
2023-05-05T01:29:37.383Z,891.00
2023-05-05T01:30:37.412Z,890.00
2023-05-05T01:31:37.505Z,888.00
2023-05-05T01:32:37.528Z,886.00
2023-05-05T01:33:37.539Z,884.00
2023-05-05T01:34:37.574Z,880.00
2023-05-05T01:35:37.628Z,880.00
2023-05-05T01:36:37.659Z,879.00
2023-05-05T01:37:37.718Z,881.00
2023-05-05T01:38:37.757Z,880.00
2023-05-05T01:39:37.797Z,882.00
2023-05-05T01:40:37.844Z,883.00
2023-05-05T01:41:37.879Z,883.00
2023-05-05T01:42:37.929Z,876.00
2023-05-05T01:43:37.952Z,874.00
2023-05-05T01:44:38.004Z,876.00
2023-05-05T01:45:38.058Z,877.00
2023-05-05T01:46:38.076Z,878.00
2023-05-05T01:47:38.145Z,876.00
2023-05-05T01:48:38.921Z,876.00
2023-05-05T01:49:38.192Z,878.00
2023-05-05T01:50:38.228Z,877.00
2023-05-05T01:51:38.287Z,875.00
2023-05-05T01:52:38.304Z,877.00
2023-05-05T01:53:38.358Z,877.00
2023-05-05T01:54:38.391Z,874.00
2023-05-05T01:55:38.419Z,873.00
2023-05-05T01:56:38.436Z,872.00
2023-05-05T01:57:38.480Z,869.00
2023-05-05T01:58:38.493Z,867.00
2023-05-05T01:59:38.543Z,866.00
2023-05-05T02:00:38.580Z,866.00
2023-05-05T02:01:38.688Z,865.00
2023-05-05T02:02:38.750Z,865.00
2023-05-05T02:03:38.821Z,865.00
2023-05-05T02:04:38.716Z,865.00
2023-05-05T02:05:38.750Z,864.00
2023-05-05T02:06:38.814Z,867.00
2023-05-05T02:07:38.852Z,864.00
2023-05-05T02:08:38.888Z,865.00
2023-05-05T02:09:38.930Z,865.00
2023-05-05T02:10:38.953Z,864.00
2023-05-05T02:11:39.003Z,865.00
2023-05-05T02:12:39.052Z,863.00
2023-05-05T02:13:39.234Z,864.00
2023-05-05T02:14:39.092Z,861.00
2023-05-05T02:15:39.210Z,858.00
2023-05-05T02:16:39.172Z,859.00
2023-05-05T02:17:39.273Z,859.00
2023-05-05T02:18:39.250Z,861.00
2023-05-05T02:19:39.291Z,861.00
2023-05-05T02:20:39.325Z,859.00
2023-05-05T02:21:39.344Z,856.00
2023-05-05T02:22:39.394Z,856.00
2023-05-05T02:23:39.429Z,857.00
2023-05-05T02:24:39.453Z,858.00
2023-05-05T02:25:39.486Z,860.00
2023-05-05T02:26:39.522Z,863.00
2023-05-05T02:27:39.565Z,864.00
2023-05-05T02:28:39.614Z,866.00
2023-05-05T02:29:39.630Z,863.00
2023-05-05T02:30:39.681Z,862.00
2023-05-05T02:31:39.785Z,864.00
2023-05-05T02:32:39.801Z,863.00
2023-05-05T02:33:39.800Z,862.00
2023-05-05T02:34:39.821Z,862.00
2023-05-05T02:35:39.849Z,861.00
2023-05-05T02:36:39.882Z,858.00
2023-05-05T02:37:39.898Z,857.00
2023-05-05T02:38:39.938Z,857.00
2023-05-05T02:39:39.982Z,857.00
2023-05-05T02:40:40.023Z,855.00
2023-05-05T02:41:40.089Z,856.00
2023-05-05T02:42:40.161Z,858.00
2023-05-05T02:43:40.163Z,861.00
2023-05-05T02:44:40.210Z,859.00
2023-05-05T02:45:40.243Z,857.00
2023-05-05T02:46:40.346Z,856.00
2023-05-05T02:47:40.384Z,853.00
2023-05-05T02:48:40.370Z,853.00
2023-05-05T02:49:40.401Z,857.00
2023-05-05T02:50:40.462Z,857.00
2023-05-05T02:51:40.503Z,854.00
2023-05-05T02:52:40.548Z,859.00
2023-05-05T02:53:40.589Z,861.00
2023-05-05T02:54:40.629Z,857.00
2023-05-05T02:55:40.653Z,859.00
2023-05-05T02:56:40.698Z,856.00
2023-05-05T02:57:40.724Z,857.00
2023-05-05T02:58:40.754Z,855.00
2023-05-05T02:59:40.788Z,856.00
2023-05-05T03:00:40.806Z,855.00
2023-05-05T03:01:40.842Z,857.00
2023-05-05T03:02:40.903Z,858.00
2023-05-05T03:03:41.074Z,859.00
2023-05-05T03:04:40.962Z,857.00
2023-05-05T03:05:40.993Z,856.00
2023-05-05T03:06:41.043Z,856.00
2023-05-05T03:07:41.088Z,854.00
2023-05-05T03:08:41.107Z,850.00
2023-05-05T03:09:41.144Z,846.00
2023-05-05T03:10:41.179Z,847.00
2023-05-05T03:11:41.222Z,847.00
2023-05-05T03:12:41.326Z,846.00
2023-05-05T03:13:41.312Z,845.00
2023-05-05T03:14:41.340Z,844.00
2023-05-05T03:15:41.379Z,843.00
2023-05-05T03:16:41.555Z,844.00
2023-05-05T03:17:41.489Z,844.00
2023-05-05T03:18:41.464Z,841.00
2023-05-05T03:19:41.494Z,842.00
2023-05-05T03:20:41.520Z,841.00
2023-05-05T03:21:41.564Z,839.00
2023-05-05T03:22:41.593Z,836.00
2023-05-05T03:23:41.609Z,837.00
2023-05-05T03:24:41.658Z,838.00
2023-05-05T03:25:41.705Z,839.00
2023-05-05T03:26:41.743Z,839.00
2023-05-05T03:27:41.787Z,840.00
2023-05-05T03:28:41.811Z,838.00
2023-05-05T03:29:41.835Z,837.00
2023-05-05T03:30:41.864Z,834.00
2023-05-05T03:31:41.930Z,836.00
2023-05-05T03:32:41.949Z,835.00
2023-05-05T03:33:41.973Z,834.00
2023-05-05T03:34:42.016Z,832.00
2023-05-05T03:35:42.120Z,830.00
2023-05-05T03:36:42.088Z,831.00
2023-05-05T03:37:42.138Z,832.00
2023-05-05T03:38:42.165Z,833.00
2023-05-05T03:39:42.217Z,835.00
2023-05-05T03:40:44.548Z,835.00
2023-05-05T03:41:42.250Z,839.00
2023-05-05T03:42:42.225Z,839.00
2023-05-05T03:43:42.271Z,836.00
2023-05-05T03:44:42.196Z,835.00
2023-05-05T03:45:42.224Z,831.00
2023-05-05T03:46:42.175Z,830.00
2023-05-05T03:47:42.195Z,827.00
2023-05-05T03:48:42.138Z,825.00
2023-05-05T03:49:42.123Z,826.00
2023-05-05T03:50:42.120Z,829.00
2023-05-05T03:51:42.095Z,831.00
2023-05-05T03:52:42.087Z,832.00
2023-05-05T03:53:42.065Z,832.00
2023-05-05T03:54:42.063Z,832.00
2023-05-05T03:55:42.042Z,832.00
2023-05-05T03:56:42.020Z,835.00
2023-05-05T03:57:42.011Z,834.00
2023-05-05T03:58:41.982Z,834.00
2023-05-05T03:59:41.981Z,834.00
2023-05-05T04:00:41.965Z,835.00
2023-05-05T04:01:41.954Z,836.00
2023-05-05T04:02:42.051Z,834.00
2023-05-05T04:03:42.014Z,832.00
2023-05-05T04:04:41.909Z,829.00
2023-05-05T04:05:41.894Z,826.00
2023-05-05T04:06:41.888Z,824.00
2023-05-05T04:07:41.863Z,820.00
2023-05-05T04:08:41.841Z,818.00
2023-05-05T04:09:41.820Z,816.00
2023-05-05T04:10:41.805Z,817.00
2023-05-05T04:11:41.800Z,814.00
2023-05-05T04:12:41.835Z,811.00
2023-05-05T04:13:41.767Z,812.00
2023-05-05T04:14:41.763Z,814.00
2023-05-05T04:15:41.748Z,815.00
2023-05-05T04:16:41.708Z,814.00
2023-05-05T04:17:41.769Z,815.00
2023-05-05T04:18:41.674Z,814.00
2023-05-05T04:19:41.679Z,814.00
2023-05-05T04:20:41.716Z,814.00
2023-05-05T04:21:41.758Z,815.00
2023-05-05T04:22:42.054Z,816.00
2023-05-05T04:23:41.868Z,816.00
2023-05-05T04:24:41.915Z,815.00
2023-05-05T04:25:41.962Z,813.00
2023-05-05T04:26:42.008Z,813.00
2023-05-05T04:27:42.044Z,810.00
2023-05-05T04:28:42.093Z,807.00
2023-05-05T04:29:42.130Z,806.00
2023-05-05T04:30:42.201Z,803.00
2023-05-05T04:31:42.348Z,804.00
2023-05-05T04:32:42.287Z,804.00
2023-05-05T04:33:42.324Z,802.00
2023-05-05T04:34:42.329Z,803.00
2023-05-05T04:35:42.372Z,803.00
2023-05-05T04:36:42.437Z,802.00
2023-05-05T04:37:42.469Z,802.00
2023-05-05T04:38:42.529Z,801.00
2023-05-05T04:39:42.560Z,800.00
2023-05-05T04:40:42.609Z,800.00
2023-05-05T04:41:42.634Z,801.00
2023-05-05T04:42:42.678Z,800.00
2023-05-05T04:43:42.735Z,800.00
2023-05-05T04:44:42.770Z,799.00
2023-05-05T04:45:42.818Z,802.00
2023-05-05T04:46:42.887Z,804.00
2023-05-05T04:47:42.930Z,802.00
2023-05-05T04:48:42.954Z,800.00
2023-05-05T04:49:43.011Z,799.00
2023-05-05T04:50:43.042Z,799.00
2023-05-05T04:51:43.082Z,801.00
2023-05-05T04:52:43.169Z,800.00
2023-05-05T04:53:43.170Z,801.00
2023-05-05T04:54:43.224Z,800.00
2023-05-05T04:55:43.258Z,799.00
2023-05-05T04:56:43.303Z,798.00
2023-05-05T04:57:43.356Z,798.00
2023-05-05T04:58:43.406Z,800.00
2023-05-05T04:59:43.436Z,799.00
2023-05-05T05:00:43.489Z,803.00
2023-05-05T05:01:43.593Z,820.00
2023-05-05T05:02:43.684Z,820.00
2023-05-05T05:03:43.824Z,821.00
2023-05-05T05:04:43.681Z,846.00
2023-05-05T05:05:43.708Z,829.00
2023-05-05T05:06:43.730Z,825.00
2023-05-05T05:07:43.782Z,822.00
2023-05-05T05:08:43.814Z,821.00
2023-05-05T05:09:43.835Z,821.00
2023-05-05T05:10:43.896Z,835.00
2023-05-05T05:11:43.902Z,956.00
2023-05-05T05:12:43.905Z,884.00
2023-05-05T05:13:43.951Z,828.00
2023-05-05T05:14:43.888Z,942.00
2023-05-05T05:15:43.911Z,915.00
2023-05-05T05:16:43.991Z,873.00
2023-05-05T05:17:43.912Z,883.00
2023-05-05T05:18:43.910Z,891.00
2023-05-05T05:19:43.892Z,916.00
2023-05-05T05:20:43.916Z,992.00
2023-05-05T05:21:43.932Z,981.00
2023-05-05T05:22:43.945Z,998.00
2023-05-05T05:23:43.957Z,1008.00
2023-05-05T05:24:44.011Z,985.00
2023-05-05T05:25:44.005Z,980.00
2023-05-05T05:26:44.015Z,946.00
2023-05-05T05:27:44.148Z,957.00
2023-05-05T05:28:44.578Z,970.00
2023-05-05T05:29:44.013Z,1029.00
2023-05-05T05:30:44.016Z,1029.00
2023-05-05T05:31:44.054Z,1017.00
2023-05-05T05:32:44.049Z,1022.00
2023-05-05T05:33:44.020Z,992.00
2023-05-05T05:34:44.025Z,964.00
2023-05-05T05:35:44.022Z,942.00
2023-05-05T05:36:44.037Z,932.00
2023-05-05T05:37:44.030Z,917.00
2023-05-05T05:38:44.037Z,909.00
2023-05-05T05:39:44.052Z,904.00
2023-05-05T05:40:44.073Z,894.00
2023-05-05T05:41:44.084Z,887.00
2023-05-05T05:42:44.092Z,876.00
2023-05-05T05:43:44.105Z,870.00
2023-05-05T05:44:44.122Z,871.00
2023-05-05T05:45:44.166Z,870.00
2023-05-05T05:46:44.118Z,869.00
2023-05-05T05:47:44.138Z,866.00
2023-05-05T05:48:44.081Z,863.00
2023-05-05T05:49:44.084Z,861.00
2023-05-05T05:50:44.051Z,863.00
2023-05-05T05:51:44.064Z,862.00
2023-05-05T05:52:44.037Z,861.00
2023-05-05T05:53:44.022Z,858.00
2023-05-05T05:54:44.027Z,857.00
2023-05-05T05:55:44.007Z,853.00
2023-05-05T05:56:44.028Z,860.00
2023-05-05T05:57:43.986Z,942.00
2023-05-05T05:58:43.968Z,968.00
2023-05-05T05:59:44.073Z,976.00
2023-05-05T06:00:43.931Z,973.00
2023-05-05T06:01:43.915Z,965.00
2023-05-05T06:02:43.980Z,953.00
2023-05-05T06:03:43.952Z,946.00
2023-05-05T06:04:43.924Z,928.00
2023-05-05T06:05:43.841Z,920.00
2023-05-05T06:06:43.832Z,909.00
2023-05-05T06:07:43.799Z,879.00
2023-05-05T06:08:43.781Z,880.00
2023-05-05T06:09:43.762Z,887.00
2023-05-05T06:10:43.770Z,895.00
2023-05-05T06:11:44.763Z,901.00
2023-05-05T06:12:43.746Z,902.00
2023-05-05T06:13:43.705Z,886.00
2023-05-05T06:14:43.667Z,879.00
2023-05-05T06:15:43.689Z,882.00
2023-05-05T06:16:43.632Z,886.00
2023-05-05T06:17:43.623Z,888.00
2023-05-05T06:18:43.578Z,894.00
2023-05-05T06:19:43.568Z,893.00
2023-05-05T06:20:43.626Z,891.00
2023-05-05T06:21:43.656Z,906.00
2023-05-05T06:22:43.721Z,916.00
2023-05-05T06:23:44.652Z,929.00
2023-05-05T06:24:43.613Z,943.00
2023-05-05T06:25:44.592Z,951.00
2023-05-05T06:26:43.610Z,948.00
2023-05-05T06:27:43.591Z,947.00
2023-05-05T06:28:43.584Z,945.00
2023-05-05T06:29:43.616Z,940.00
2023-05-05T06:30:43.547Z,940.00
2023-05-05T06:31:43.567Z,940.00
2023-05-05T06:32:43.544Z,940.00
2023-05-05T06:33:43.574Z,941.00
2023-05-05T06:34:43.487Z,939.00
2023-05-05T06:35:43.497Z,941.00
2023-05-05T06:36:43.521Z,943.00
2023-05-05T06:37:43.411Z,943.00
2023-05-05T06:38:43.398Z,942.00
2023-05-05T06:39:43.356Z,942.00
2023-05-05T06:40:43.345Z,942.00
2023-05-05T06:41:43.316Z,942.00
2023-05-05T06:42:43.364Z,944.00
2023-05-05T06:43:43.468Z,946.00
2023-05-05T06:44:43.422Z,949.00
2023-05-05T06:45:43.861Z,948.00
2023-05-05T06:46:43.614Z,948.00
2023-05-05T06:47:43.429Z,946.00
2023-05-05T06:48:44.387Z,945.00
2023-05-05T06:49:43.349Z,942.00
2023-05-05T06:50:43.369Z,941.00
2023-05-05T06:51:43.334Z,940.00
2023-05-05T06:52:43.336Z,941.00
2023-05-05T06:53:43.490Z,942.00
2023-05-05T06:54:43.341Z,943.00
2023-05-05T06:55:43.215Z,941.00
2023-05-05T06:56:43.210Z,939.00
2023-05-05T06:57:43.180Z,941.00
2023-05-05T06:58:43.164Z,940.00
2023-05-05T06:59:43.138Z,943.00
2023-05-05T07:00:43.185Z,942.00
2023-05-05T07:01:43.096Z,942.00
2023-05-05T07:02:44.145Z,942.00
2023-05-05T07:03:43.183Z,940.00
2023-05-05T07:04:43.043Z,940.00
2023-05-05T07:05:43.181Z,940.00
2023-05-05T07:06:43.030Z,942.00
2023-05-05T07:07:42.990Z,945.00
2023-05-05T07:08:42.965Z,946.00
2023-05-05T07:09:43.051Z,943.00
2023-05-05T07:10:42.925Z,941.00
2023-05-05T07:11:42.965Z,943.00
2023-05-05T07:12:43.031Z,948.00
2023-05-05T07:13:44.654Z,949.00
2023-05-05T07:14:43.059Z,947.00
2023-05-05T07:15:43.082Z,945.00
2023-05-05T07:16:43.159Z,951.00
2023-05-05T07:17:44.108Z,1002.00
2023-05-05T07:18:43.102Z,1042.00
2023-05-05T07:19:43.100Z,1160.00
2023-05-05T07:20:47.703Z,1246.00
2023-05-05T07:21:43.084Z,1252.00
2023-05-05T07:22:43.060Z,1262.00
2023-05-05T07:23:43.050Z,1202.00
2023-05-05T07:24:43.034Z,1179.00
2023-05-05T07:25:43.713Z,1182.00
2023-05-05T07:26:42.989Z,1177.00
2023-05-05T07:27:42.955Z,1169.00
2023-05-05T07:28:42.969Z,1165.00
2023-05-05T07:29:42.919Z,1156.00
2023-05-05T07:30:44.565Z,1154.00
2023-05-05T07:31:43.664Z,1151.00
2023-05-05T07:32:42.867Z,1149.00
2023-05-05T07:33:44.669Z,1144.00
2023-05-05T07:34:42.804Z,1139.00
2023-05-05T07:35:42.780Z,1122.00
2023-05-05T07:36:42.764Z,1112.00
2023-05-05T07:37:45.633Z,1102.00
2023-05-05T07:38:43.164Z,1095.00
2023-05-05T07:39:42.695Z,1088.00
2023-05-05T07:40:42.670Z,1083.00
2023-05-05T07:41:42.857Z,1069.00
2023-05-05T07:42:42.607Z,1055.00
2023-05-05T07:43:44.538Z,1056.00
2023-05-05T07:44:42.571Z,1056.00
2023-05-05T07:45:42.573Z,1055.00
2023-05-05T07:46:42.517Z,1051.00
2023-05-05T07:47:42.504Z,1047.00
2023-05-05T07:48:42.487Z,1042.00
2023-05-05T07:49:42.473Z,1039.00
2023-05-05T07:50:44.157Z,1039.00
2023-05-05T07:51:42.410Z,1035.00
2023-05-05T07:52:46.795Z,1029.00
2023-05-05T07:53:43.351Z,1023.00
2023-05-05T07:54:43.143Z,1018.00
2023-05-05T07:55:42.310Z,1015.00
2023-05-05T07:56:44.175Z,1012.00
2023-05-05T07:57:42.731Z,1007.00
2023-05-05T07:58:42.259Z,1007.00
2023-05-05T07:59:42.238Z,1003.00
2023-05-05T08:00:45.064Z,1000.00
2023-05-05T08:01:42.187Z,997.00
2023-05-05T08:02:44.218Z,998.00
2023-05-05T08:03:42.754Z,1001.00
2023-05-05T08:04:42.269Z,997.00
2023-05-05T08:05:42.749Z,995.00
2023-05-05T08:06:43.197Z,992.00
2023-05-05T08:07:42.208Z,991.00
2023-05-05T08:08:49.159Z,990.00
2023-05-05T08:09:42.358Z,984.00
2023-05-05T08:10:42.187Z,980.00
2023-05-05T08:11:42.184Z,982.00
2023-05-05T08:12:42.219Z,1090.00
2023-05-05T08:13:42.239Z,1112.00
2023-05-05T08:14:42.160Z,1132.00
2023-05-05T08:15:42.197Z,1216.00
2023-05-05T08:16:42.131Z,1314.00
2023-05-05T08:17:42.218Z,1321.00
2023-05-05T08:18:46.656Z,1356.00
2023-05-05T08:19:42.076Z,1359.00
2023-05-05T08:20:42.051Z,1344.00
2023-05-05T08:21:42.651Z,1196.00
2023-05-05T08:22:42.096Z,1204.00
2023-05-05T08:23:42.000Z,1174.00
2023-05-05T08:24:41.988Z,1138.00
2023-05-05T08:25:42.003Z,1056.00
2023-05-05T08:26:41.936Z,1077.00
2023-05-05T08:27:41.892Z,1075.00
2023-05-05T08:28:41.877Z,1076.00
2023-05-05T08:29:41.908Z,1123.00
2023-05-05T08:30:42.013Z,1146.00
2023-05-05T08:31:42.047Z,1136.00
2023-05-05T08:32:41.864Z,1134.00
2023-05-05T08:33:41.912Z,1130.00
2023-05-05T08:34:41.765Z,1121.00
2023-05-05T08:35:41.760Z,1107.00
2023-05-05T08:36:41.799Z,1090.00
2023-05-05T08:37:41.838Z,1079.00
2023-05-05T08:38:41.891Z,1072.00
2023-05-05T08:39:42.858Z,1073.00
2023-05-05T08:40:41.855Z,1066.00
2023-05-05T08:41:41.819Z,1054.00
2023-05-05T08:42:42.207Z,1042.00
2023-05-05T08:43:41.784Z,1032.00
2023-05-05T08:44:41.755Z,1030.00
2023-05-05T08:45:41.817Z,1028.00
2023-05-05T08:46:41.729Z,1030.00
2023-05-05T08:47:41.773Z,1033.00
2023-05-05T08:48:41.680Z,1038.00
2023-05-05T08:49:41.670Z,1039.00
2023-05-05T08:50:41.641Z,1039.00
2023-05-05T08:51:41.622Z,1039.00
2023-05-05T08:52:41.716Z,1053.00
2023-05-05T08:53:41.581Z,1067.00
2023-05-05T08:54:41.573Z,1065.00
2023-05-05T08:55:41.555Z,1064.00
2023-05-05T08:56:43.211Z,1068.00
2023-05-05T08:57:41.515Z,1070.00
2023-05-05T08:58:41.509Z,1074.00
2023-05-05T08:59:41.461Z,1069.00
2023-05-05T09:00:41.513Z,1065.00
2023-05-05T09:01:41.562Z,1062.00
2023-05-05T09:02:41.563Z,1061.00
2023-05-05T09:03:41.449Z,1060.00
2023-05-05T09:04:41.494Z,1061.00
2023-05-05T09:05:41.519Z,1059.00
2023-05-05T09:06:41.580Z,1059.00
2023-05-05T09:07:42.545Z,1060.00
2023-05-05T09:08:41.533Z,1059.00
2023-05-05T09:09:41.500Z,1057.00
2023-05-05T09:10:41.485Z,1057.00
2023-05-05T09:11:41.469Z,1064.00
2023-05-05T09:12:41.499Z,1064.00
2023-05-05T09:13:41.419Z,1064.00
2023-05-05T09:14:41.463Z,1066.00
2023-05-05T09:15:41.704Z,1134.00
2023-05-05T09:16:41.474Z,1165.00
2023-05-05T09:17:41.427Z,1182.00
2023-05-05T09:18:41.402Z,1294.00
2023-05-05T09:19:41.401Z,1213.00
2023-05-05T09:20:41.393Z,1194.00
2023-05-05T09:21:42.103Z,1189.00
2023-05-05T09:22:43.221Z,1181.00
2023-05-05T09:23:41.353Z,1187.00
2023-05-05T09:24:41.313Z,1184.00
2023-05-05T09:25:41.295Z,1175.00
2023-05-05T09:26:41.330Z,1160.00
2023-05-05T09:27:42.105Z,1155.00
2023-05-05T09:28:42.109Z,1146.00
2023-05-05T09:29:41.411Z,1133.00
2023-05-05T09:30:41.510Z,1123.00
2023-05-05T09:31:41.489Z,1112.00
2023-05-05T09:32:41.551Z,1099.00
2023-05-05T09:33:41.643Z,1100.00
2023-05-05T09:34:41.602Z,1102.00
2023-05-05T09:35:41.629Z,1096.00
2023-05-05T09:36:41.679Z,1082.00
2023-05-05T09:37:41.712Z,1076.00
2023-05-05T09:38:41.753Z,1069.00
2023-05-05T09:39:41.801Z,1065.00
2023-05-05T09:40:41.941Z,1069.00
2023-05-05T09:41:41.900Z,1070.00
2023-05-05T09:42:41.925Z,1067.00
2023-05-05T09:43:42.086Z,1070.00
2023-05-05T09:44:42.025Z,1077.00
2023-05-05T09:45:46.725Z,1084.00
2023-05-05T09:46:42.688Z,1084.00
2023-05-05T09:47:42.064Z,1084.00
2023-05-05T09:48:42.015Z,1083.00
2023-05-05T09:49:42.625Z,1086.00
2023-05-05T09:50:42.704Z,1089.00
2023-05-05T09:51:42.627Z,1087.00
2023-05-05T09:52:41.995Z,1090.00
2023-05-05T09:53:41.979Z,1093.00
2023-05-05T09:54:41.924Z,1094.00
2023-05-05T09:55:42.639Z,1098.00
2023-05-05T09:56:41.915Z,1094.00
2023-05-05T09:57:41.956Z,1094.00
2023-05-05T09:58:42.078Z,1102.00
2023-05-05T09:59:42.168Z,1097.00
2023-05-05T10:00:42.094Z,1098.00
2023-05-05T10:01:42.220Z,1095.00
2023-05-05T10:02:42.221Z,1097.00
2023-05-05T10:03:42.237Z,1103.00
2023-05-05T10:04:42.303Z,1109.00
2023-05-05T10:05:42.454Z,1120.00
2023-05-05T10:06:42.349Z,1115.00
2023-05-05T10:07:42.400Z,1124.00
2023-05-05T10:08:42.434Z,1125.00
2023-05-05T10:09:42.474Z,1118.00
2023-05-05T10:10:42.525Z,1115.00
2023-05-05T10:11:42.574Z,1120.00
2023-05-05T10:12:42.683Z,1125.00
2023-05-05T10:13:42.642Z,1162.00
2023-05-05T10:14:42.721Z,1161.00
2023-05-05T10:15:42.804Z,1169.00
2023-05-05T10:16:42.876Z,1213.00
2023-05-05T10:17:53.940Z,1256.00
2023-05-05T10:18:43.886Z,1285.00
2023-05-05T10:19:42.898Z,1303.00
2023-05-05T10:20:42.770Z,1332.00
2023-05-05T10:21:42.857Z,1230.00
2023-05-05T10:22:43.714Z,1205.00
2023-05-05T10:23:42.707Z,1198.00
2023-05-05T10:24:42.695Z,1193.00
2023-05-05T10:25:42.655Z,1175.00
2023-05-05T10:26:42.642Z,1163.00
2023-05-05T10:27:42.619Z,1167.00
2023-05-05T10:28:42.620Z,1159.00
2023-05-05T10:29:43.225Z,1147.00
2023-05-05T10:30:42.699Z,1149.00
2023-05-05T10:31:42.784Z,1161.00
2023-05-05T10:33:42.804Z,1164.00
2023-05-05T10:34:42.729Z,1155.00
2023-05-05T10:35:42.692Z,1154.00
2023-05-05T10:36:42.667Z,1168.00
2023-05-05T10:37:42.764Z,1155.00
2023-05-05T10:38:42.656Z,1156.00
2023-05-05T10:39:42.613Z,1146.00
2023-05-05T10:40:42.584Z,1160.00
2023-05-05T10:41:42.619Z,1173.00
2023-05-05T10:42:42.554Z,1170.00
2023-05-05T10:43:42.556Z,1166.00
2023-05-05T10:44:43.218Z,1169.00
2023-05-05T10:45:42.548Z,1172.00
2023-05-05T10:46:42.590Z,1174.00
2023-05-05T10:47:42.515Z,1180.00
2023-05-05T10:48:42.483Z,1183.00
2023-05-05T10:49:42.404Z,1240.00
2023-05-05T10:50:42.388Z,1227.00
2023-05-05T10:51:42.365Z,1212.00
2023-05-05T10:52:42.334Z,1205.00
2023-05-05T10:53:42.973Z,1191.00
2023-05-05T10:54:42.306Z,1188.00
2023-05-05T10:55:42.265Z,1186.00
2023-05-05T10:56:42.246Z,1193.00
2023-05-05T10:57:42.236Z,1205.00
2023-05-05T10:58:58.245Z,1252.00
2023-05-05T10:59:43.242Z,1260.00
2023-05-05T11:00:42.267Z,1261.00
2023-05-05T11:01:42.284Z,1253.00
2023-05-05T11:02:42.327Z,1171.00
2023-05-05T11:03:42.419Z,1191.00
2023-05-05T11:04:42.382Z,1203.00
2023-05-05T11:05:42.438Z,1200.00
2023-05-05T11:06:42.469Z,1202.00
2023-05-05T11:07:42.579Z,1198.00
2023-05-05T11:08:42.530Z,1207.00
2023-05-05T11:09:42.625Z,1224.00
2023-05-05T11:10:42.597Z,1229.00
2023-05-05T11:11:42.639Z,1234.00
2023-05-05T11:12:42.683Z,1233.00
2023-05-05T11:13:42.725Z,1231.00
2023-05-05T11:14:42.733Z,1229.00
2023-05-05T11:15:42.760Z,1224.00
2023-05-05T11:16:42.799Z,1221.00
2023-05-05T11:17:42.859Z,1215.00
2023-05-05T11:18:42.873Z,1212.00
2023-05-05T11:19:42.895Z,1211.00
2023-05-05T11:20:42.915Z,1212.00
2023-05-05T11:21:42.958Z,1213.00
2023-05-05T11:22:43.005Z,1214.00
2023-05-05T11:23:43.032Z,1219.00
2023-05-05T11:24:43.056Z,1225.00
2023-05-05T11:25:43.152Z,1232.00
2023-05-05T11:26:43.144Z,1239.00
2023-05-05T11:27:43.156Z,1245.00
2023-05-05T11:28:43.221Z,1246.00
2023-05-05T11:29:43.230Z,1243.00
2023-05-05T11:30:44.292Z,1241.00
2023-05-05T11:31:43.286Z,1247.00
2023-05-05T11:32:43.343Z,1252.00
2023-05-05T11:33:43.352Z,1249.00
2023-05-05T11:34:43.384Z,1246.00
2023-05-05T11:35:43.416Z,1240.00
2023-05-05T11:36:43.492Z,1233.00
2023-05-05T11:37:43.480Z,1221.00
2023-05-05T11:38:43.515Z,1202.00
2023-05-05T11:39:44.256Z,1214.00
2023-05-05T11:40:43.572Z,1232.00
2023-05-05T11:41:43.656Z,1231.00
2023-05-05T11:42:43.629Z,1223.00
2023-05-05T11:43:43.654Z,1222.00
2023-05-05T11:44:43.683Z,1222.00
2023-05-05T11:45:43.711Z,1225.00
2023-05-05T11:46:43.787Z,1229.00
2023-05-05T11:47:43.798Z,1233.00
2023-05-05T11:48:43.839Z,1229.00
2023-05-05T11:49:43.856Z,1232.00
2023-05-05T11:50:43.889Z,1237.00
2023-05-05T11:51:43.919Z,1237.00
2023-05-05T11:52:43.983Z,1263.00
2023-05-05T11:53:43.991Z,1236.00
2023-05-05T11:54:44.056Z,1228.00
2023-05-05T11:55:44.053Z,1229.00
2023-05-05T11:56:44.073Z,1228.00
2023-05-05T11:57:44.180Z,1225.00
2023-05-05T11:58:44.145Z,1220.00
2023-05-05T11:59:44.173Z,1218.00
2023-05-05T12:00:44.214Z,1220.00
2023-05-05T12:01:44.233Z,1221.00
2023-05-05T12:02:44.331Z,1223.00
2023-05-05T12:03:44.488Z,1226.00
2023-05-05T12:04:44.387Z,1230.00
2023-05-05T12:05:44.380Z,1231.00
2023-05-05T12:06:44.402Z,1234.00
2023-05-05T12:07:44.432Z,1243.00
2023-05-05T12:08:44.467Z,1240.00
2023-05-05T12:09:44.534Z,1226.00
2023-05-05T12:10:44.538Z,1193.00
2023-05-05T12:11:44.568Z,1190.00
2023-05-05T12:12:47.534Z,1178.00
2023-05-05T12:13:44.576Z,1162.00
2023-05-05T12:14:44.748Z,1160.00
2023-05-05T12:15:44.533Z,1164.00
2023-05-05T12:16:44.694Z,1172.00
2023-05-05T12:17:44.469Z,1159.00
2023-05-05T12:18:44.422Z,1145.00
2023-05-05T12:19:44.591Z,1133.00
2023-05-05T12:20:44.376Z,1129.00